Time;durP1;ratioP1;P1;durP2;ratioP2;P2;SDS_P1;SDS_P2;PMS_P1;PMS_P2;Temp;Humidity;BMP_temperature;BMP_pressure;BME280_temperature;BME280_humidity;BME280_pressure;Samples;Min_cycle;Max_cycle;Signal;HPM_P1;HPM_P2
2022/08/02 00:00:46;;;;;;;7.25;2.60;;;14.50;99.90;;;;;;5106910;27;20031;-82
2022/08/02 00:03:12;;;;;;;5.20;2.47;;;14.40;99.90;;;;;;5105514;27;20038;-82
2022/08/02 00:05:37;;;;;;;6.90;2.78;;;14.30;99.90;;;;;;5114641;27;20034;-83
2022/08/02 00:08:03;;;;;;;6.45;2.42;;;14.20;99.90;;;;;;5108276;28;20035;-82
2022/08/02 00:10:29;;;;;;;5.57;3.08;;;14.20;99.90;;;;;;5108304;27;20039;-82
2022/08/02 00:12:55;;;;;;;6.80;2.92;;;14.10;99.90;;;;;;5105673;27;20051;-82
2022/08/02 00:15:21;;;;;;;5.40;2.88;;;14.10;99.90;;;;;;5084931;27;20495;-82
2022/08/02 00:17:47;;;;;;;6.28;2.60;;;14.10;99.90;;;;;;5121759;27;20042;-82
2022/08/02 00:20:13;;;;;;;5.78;2.67;;;14.00;99.90;;;;;;5090410;27;20043;-81
2022/08/02 00:22:39;;;;;;;7.38;2.90;;;14.10;99.90;;;;;;5121985;27;20514;-82
2022/08/02 00:25:05;;;;;;;5.18;2.50;;;14.00;99.90;;;;;;5078508;28;20035;-82
2022/08/02 00:27:30;;;;;;;6.32;2.65;;;14.00;99.90;;;;;;5121198;27;20039;-82
2022/08/02 00:29:56;;;;;;;5.40;2.60;;;13.90;99.90;;;;;;5085790;27;20047;-82
2022/08/02 00:32:22;;;;;;;8.00;2.80;;;13.80;99.90;;;;;;5099413;28;20173;-83
2022/08/02 00:34:48;;;;;;;8.63;2.85;;;13.80;99.90;;;;;;5118962;27;20104;-82
2022/08/02 00:37:14;;;;;;;5.97;2.90;;;13.80;99.90;;;;;;5121760;27;20038;-82
2022/08/02 00:39:41;;;;;;;7.25;2.80;;;13.70;99.90;;;;;;5124282;27;20051;-81
2022/08/02 00:42:07;;;;;;;7.05;2.80;;;13.70;99.90;;;;;;5110301;27;20042;-82
2022/08/02 00:44:33;;;;;;;8.90;3.22;;;13.60;99.90;;;;;;5126875;27;20402;-82
2022/08/02 00:46:59;;;;;;;6.68;2.95;;;13.60;99.90;;;;;;5105238;28;20114;-82
2022/08/02 00:49:25;;;;;;;6.10;3.05;;;13.60;99.90;;;;;;5119239;27;20039;-82
2022/08/02 00:51:51;;;;;;;8.25;2.88;;;13.60;99.90;;;;;;5127132;27;20042;-82
2022/08/02 00:54:16;;;;;;;5.78;2.70;;;13.60;99.90;;;;;;5105753;27;20043;-82
2022/08/02 00:56:42;;;;;;;5.30;2.53;;;13.60;99.90;;;;;;5108842;27;20039;-81
2022/08/02 00:59:08;;;;;;;6.05;2.85;;;13.70;99.90;;;;;;5087910;28;20310;-82
2022/08/02 01:01:39;;;;;;;5.70;2.35;;;13.70;99.90;;;;;;5109803;27;20039;-82
2022/08/02 01:04:08;;;;;;;8.88;2.30;;;13.70;99.90;;;;;;5108040;27;20043;-82
2022/08/02 01:06:36;;;;;;;6.22;2.65;;;13.70;99.90;;;;;;5120460;27;20064;-81
2022/08/02 01:09:03;;;;;;;6.75;2.30;;;13.70;99.90;;;;;;5126196;27;20035;-81
2022/08/02 01:11:29;;;;;;;8.98;2.70;;;13.70;99.90;;;;;;5115857;27;20093;-82
2022/08/02 01:13:57;;;;;;;7.97;2.42;;;13.70;99.90;;;;;;5101272;28;20069;-82
2022/08/02 01:16:27;;;;;;;9.70;2.22;;;13.70;99.90;;;;;;5127840;27;20490;-82
2022/08/02 01:19:00;;;;;;;7.45;2.45;;;13.70;99.90;;;;;;5110020;27;20042;-81
2022/08/02 01:21:39;;;;;;;5.03;2.30;;;13.70;99.90;;;;;;5123886;27;20088;-82
2022/08/02 01:24:56;;;;;;;6.35;2.50;;;13.70;99.90;;;;;;5121528;27;20189;-81
2022/08/02 01:27:37;;;;;;;3.85;2.33;;;13.70;99.90;;;;;;5032077;28;20184;-81
2022/08/02 01:30:03;;;;;;;7.07;2.15;;;13.70;99.90;;;;;;5116941;27;20058;-81
2022/08/02 01:32:35;;;;;;;6.75;2.10;;;13.70;99.90;;;;;;5116141;27;20119;-82
2022/08/02 01:35:06;;;;;;;6.95;2.05;;;13.70;99.90;;;;;;5115779;27;20077;-81
2022/08/02 01:37:48;;;;;;;8.55;2.60;;;13.60;99.90;;;;;;5113476;27;20035;-82
2022/08/02 01:40:21;;;;;;;5.10;1.90;;;13.70;99.90;;;;;;5099481;27;20040;-82
2022/08/02 01:42:51;;;;;;;6.07;2.30;;;13.70;99.90;;;;;;5098478;27;20027;-82
2022/08/02 01:45:19;;;;;;;5.55;2.25;;;13.70;99.90;;;;;;5112448;27;20048;-82
2022/08/02 01:47:46;;;;;;;8.75;2.90;;;13.70;99.90;;;;;;5130602;27;20035;-81
2022/08/02 01:50:16;;;;;;;7.65;2.58;;;13.70;99.90;;;;;;5084928;27;20039;-82
2022/08/02 01:52:48;;;;;;;9.52;3.05;;;13.70;99.90;;;;;;5104187;28;20052;-82
2022/08/02 01:55:39;;;;;;;7.45;2.70;;;13.70;99.90;;;;;;5109294;27;20551;-82
2022/08/02 01:58:06;;;;;;;4.68;2.38;;;13.60;99.90;;;;;;5115960;27;20039;-81
2022/08/02 02:00:37;;;;;;;4.88;2.40;;;13.60;99.90;;;;;;5120226;27;20039;-82
2022/08/02 02:03:05;;;;;;;8.82;2.42;;;13.60;99.90;;;;;;5100895;28;20031;-82
2022/08/02 02:05:32;;;;;;;7.07;2.58;;;13.60;99.90;;;;;;5077178;28;20050;-82
2022/08/02 02:08:00;;;;;;;7.72;3.00;;;13.60;99.90;;;;;;5105809;28;20035;-82
2022/08/02 02:10:29;;;;;;;8.57;3.00;;;13.60;99.90;;;;;;5100532;28;20136;-82
2022/08/02 02:12:57;;;;;;;5.45;2.63;;;13.60;99.90;;;;;;5095993;28;20046;-81
2022/08/02 02:15:24;;;;;;;7.20;2.95;;;13.60;99.90;;;;;;5118492;28;20484;-81
2022/08/02 02:17:51;;;;;;;8.80;3.03;;;13.60;99.90;;;;;;5087294;28;20032;-83
2022/08/02 02:20:20;;;;;;;9.43;2.95;;;13.60;99.90;;;;;;5124988;28;20074;-82
2022/08/02 02:22:46;;;;;;;8.15;3.05;;;13.60;99.90;;;;;;5116878;28;20049;-82
2022/08/02 02:25:14;;;;;;;7.38;2.95;;;13.60;99.90;;;;;;5104641;28;20136;-82
2022/08/02 02:27:50;;;;;;;8.65;2.83;;;13.50;99.90;;;;;;5123367;27;20047;-82
2022/08/02 02:30:16;;;;;;;7.93;2.90;;;13.50;99.90;;;;;;5124236;27;20475;-82
2022/08/02 02:32:44;;;;;;;10.57;2.97;;;13.50;99.90;;;;;;5125692;27;20051;-81
2022/08/02 02:35:12;;;;;;;7.65;2.90;;;13.50;99.90;;;;;;5128708;27;20483;-82
2022/08/02 02:37:40;;;;;;;9.95;3.30;;;13.50;99.90;;;;;;5105976;27;20035;-83
2022/08/02 02:40:07;;;;;;;6.88;3.10;;;13.50;99.90;;;;;;5104241;27;20055;-82
2022/08/02 02:42:34;;;;;;;5.90;3.00;;;13.50;99.90;;;;;;5124218;27;20521;-82
2022/08/02 02:45:01;;;;;;;;;;;13.40;99.90;;;;;;5100216;28;20040;-82
2022/08/02 02:47:29;;;;;;;6.40;3.40;;;13.40;99.90;;;;;;5106830;27;20371;-82
2022/08/02 02:49:56;;;;;;;8.30;3.20;;;13.40;99.90;;;;;;5124757;27;20118;-83
2022/08/02 02:52:23;;;;;;;9.45;3.10;;;13.40;99.90;;;;;;5120344;27;20047;-81
2022/08/02 02:54:49;;;;;;;7.72;2.97;;;13.40;99.90;;;;;;5105740;27;20028;-82
2022/08/02 02:57:15;;;;;;;8.57;3.30;;;13.30;99.90;;;;;;5130231;27;20031;-81
2022/08/02 02:59:41;;;;;;;;;;;13.30;99.90;;;;;;5099285;28;20027;-82
2022/08/02 03:02:09;;;;;;;7.00;3.28;;;13.30;99.90;;;;;;5100475;27;19930;-82
2022/08/02 03:04:36;;;;;;;6.25;2.72;;;13.30;99.90;;;;;;5104233;27;20467;-82
2022/08/02 03:07:03;;;;;;;8.40;2.75;;;13.20;99.90;;;;;;5125009;27;20052;-83
2022/08/02 03:09:29;;;;;;;7.88;2.90;;;13.20;99.90;;;;;;5109194;27;20095;-83
2022/08/02 03:11:55;;;;;;;9.35;3.15;;;13.30;99.90;;;;;;5102754;27;20027;-82
2022/08/02 03:14:22;;;;;;;9.52;2.72;;;13.30;99.90;;;;;;5123829;27;20405;-82
2022/08/02 03:16:49;;;;;;;;;;;13.30;99.90;;;;;;5123316;27;20069;-81
2022/08/02 03:19:16;;;;;;;7.22;2.95;;;13.30;99.90;;;;;;5109647;28;19996;-82
2022/08/02 03:21:43;;;;;;;8.02;2.65;;;13.30;99.90;;;;;;5125834;27;20524;-81
2022/08/02 03:24:09;;;;;;;8.82;3.03;;;13.30;99.90;;;;;;5099498;27;20058;-82
2022/08/02 03:26:35;;;;;;;7.68;3.25;;;13.20;99.90;;;;;;5118469;27;20043;-83
2022/08/02 03:29:02;;;;;;;7.20;3.03;;;13.30;99.90;;;;;;5108881;28;20043;-82
2022/08/02 03:31:28;;;;;;;10.48;3.33;;;13.20;99.90;;;;;;5108179;27;20059;-82
2022/08/02 03:33:56;;;;;;;9.45;2.70;;;13.30;99.90;;;;;;5125362;27;20111;-82
2022/08/02 03:36:24;;;;;;;6.13;2.70;;;13.20;99.90;;;;;;5122070;27;20166;-82
2022/08/02 03:38:51;;;;;;;8.25;3.10;;;13.20;99.90;;;;;;5122263;27;20121;-82
2022/08/02 03:41:19;;;;;;;6.78;3.03;;;13.20;99.90;;;;;;5121387;27;20104;-82
2022/08/02 03:43:47;;;;;;;8.00;3.13;;;13.20;99.90;;;;;;5106822;27;20027;-82
2022/08/02 03:46:16;;;;;;;5.60;2.72;;;13.10;99.90;;;;;;5103579;27;20035;-82
2022/08/02 03:48:42;;;;;;;10.60;3.40;;;13.10;99.90;;;;;;5128149;27;20108;-82
2022/08/02 03:51:09;;;;;;;8.95;3.05;;;13.20;99.90;;;;;;5120889;27;20066;-82
2022/08/02 03:53:36;;;;;;;7.93;2.80;;;13.10;99.90;;;;;;5120849;27;20048;-82
2022/08/02 03:56:03;;;;;;;9.60;3.38;;;13.10;99.90;;;;;;5115927;27;20107;-81
2022/08/02 03:58:28;;;;;;;9.10;4.18;;;13.10;99.90;;;;;;5125481;27;20448;-82
2022/08/02 04:00:56;;;;;;;9.82;3.50;;;13.10;99.90;;;;;;5094084;27;20027;-82
2022/08/02 04:03:22;;;;;;;6.47;3.00;;;13.10;99.90;;;;;;5125827;27;20043;-82
2022/08/02 04:05:48;;;;;;;12.38;3.67;;;13.10;99.90;;;;;;5091411;28;20031;-81
2022/08/02 04:08:14;;;;;;;11.40;3.47;;;13.10;99.90;;;;;;5129238;27;20034;-82
2022/08/02 04:13:34;;;;;;;10.63;3.75;;;13.00;99.90;;;;;;5110375;27;20051;-82
2022/08/02 04:16:17;;;;;;;6.72;3.30;;;13.00;99.90;;;;;;5122286;27;20074;-80
2022/08/02 04:18:50;;;;;;;7.57;3.47;;;13.10;99.90;;;;;;5115197;27;20047;-82
2022/08/02 04:21:18;;;;;;;7.60;3.95;;;13.10;99.90;;;;;;5124666;27;20042;-83
2022/08/02 04:23:46;;;;;;;7.82;4.20;;;13.10;99.90;;;;;;5102638;27;20054;-83
2022/08/02 04:26:12;;;;;;;9.32;4.22;;;13.10;99.90;;;;;;5119514;27;20031;-82
2022/08/02 04:28:39;;;;;;;8.75;4.72;;;13.10;99.90;;;;;;5088449;28;20503;-81
2022/08/02 04:31:06;;;;;;;9.07;4.15;;;13.10;99.90;;;;;;5076986;28;20121;-81
2022/08/02 04:33:33;;;;;;;11.85;4.32;;;13.10;99.90;;;;;;5110818;27;20081;-82
2022/08/02 04:35:59;;;;;;;10.52;3.90;;;13.10;99.90;;;;;;5120651;27;20035;-82
2022/08/02 04:38:25;;;;;;;12.15;3.95;;;13.10;99.90;;;;;;5101845;27;20038;-82
2022/08/02 04:40:53;;;;;;;13.07;4.45;;;13.10;99.90;;;;;;5104975;27;20035;-83
2022/08/02 04:43:19;;;;;;;9.73;4.25;;;13.10;99.90;;;;;;5124130;27;20035;-81
2022/08/02 04:45:46;;;;;;;;;;;13.20;99.90;;;;;;5124552;27;20038;-82
2022/08/02 04:48:11;;;;;;;10.15;4.30;;;13.20;99.90;;;;;;5121314;27;20454;-81
2022/08/02 04:50:37;;;;;;;8.77;4.20;;;13.20;99.90;;;;;;5121796;27;20070;-81
2022/08/02 04:53:03;;;;;;;8.20;3.80;;;13.20;99.90;;;;;;5126407;27;20039;-85
2022/08/02 04:55:28;;;;;;;10.65;3.80;;;13.20;99.90;;;;;;5086030;27;20058;-83
2022/08/02 04:57:56;;;;;;;8.35;3.92;;;13.20;99.90;;;;;;5119467;27;20038;-83
2022/08/02 05:00:23;;;;;;;13.35;4.30;;;13.30;99.90;;;;;;5104984;27;20528;-84
2022/08/02 05:02:48;;;;;;;13.07;4.70;;;13.30;99.90;;;;;;5103568;27;20093;-84
2022/08/02 05:05:14;;;;;;;8.25;4.00;;;13.30;99.90;;;;;;5087521;27;20429;-84
2022/08/02 05:07:40;;;;;;;6.38;3.97;;;13.40;99.90;;;;;;5104511;27;20486;-84
2022/08/02 05:10:06;;;;;;;10.20;4.53;;;13.40;99.90;;;;;;5102021;27;20092;-85
2022/08/02 05:12:31;;;;;;;8.13;4.47;;;13.50;99.90;;;;;;5121819;27;20082;-84
2022/08/02 05:14:57;;;;;;;10.77;4.07;;;13.50;99.90;;;;;;5101222;27;20035;-83
2022/08/02 05:17:23;;;;;;;7.80;4.13;;;13.60;99.90;;;;;;5121201;27;20517;-83
2022/08/02 05:19:48;;;;;;;8.50;3.88;;;13.70;99.90;;;;;;5103802;27;20055;-84
2022/08/02 05:22:14;;;;;;;9.50;3.80;;;13.80;99.90;;;;;;5104365;27;20047;-84
2022/08/02 05:24:40;;;;;;;6.63;3.95;;;13.90;99.90;;;;;;5104930;27;20742;-84
2022/08/02 05:27:05;;;;;;;10.00;4.13;;;14.00;99.90;;;;;;5121121;27;20097;-84
2022/08/02 05:29:31;;;;;;;9.18;3.88;;;14.00;99.90;;;;;;5104941;27;21032;-83
2022/08/02 05:31:57;;;;;;;7.77;4.07;;;14.10;99.90;;;;;;5103519;28;20036;-84
2022/08/02 05:34:23;;;;;;;9.55;3.60;;;14.20;99.90;;;;;;5105883;27;20282;-84
2022/08/02 05:36:48;;;;;;;7.18;3.58;;;14.30;99.90;;;;;;5104848;27;20032;-84
2022/08/02 05:39:14;;;;;;;13.15;3.92;;;14.40;99.90;;;;;;5105826;27;20031;-84
2022/08/02 05:41:40;;;;;;;9.27;4.03;;;14.50;99.90;;;;;;5086410;27;20039;-84
2022/08/02 05:44:05;;;;;;;13.18;4.20;;;14.60;99.90;;;;;;5087205;28;20283;-84
2022/08/02 05:46:31;;;;;;;7.27;3.97;;;14.80;99.90;;;;;;5102332;27;20114;-84
2022/08/02 05:48:57;;;;;;;9.80;3.60;;;14.90;99.90;;;;;;5122274;27;20384;-84
2022/08/02 05:51:37;;;;;;;7.53;3.42;;;15.10;99.90;;;;;;5086458;27;20301;-84
2022/08/02 05:54:26;;;;;;;9.02;3.45;;;15.20;99.90;;;;;;5118276;27;20039;-85
2022/08/02 05:57:04;;;;;;;9.80;3.60;;;15.40;99.90;;;;;;5119857;27;20410;-84
2022/08/02 05:59:47;;;;;;;9.32;3.80;;;15.60;99.90;;;;;;5103130;27;20039;-84
2022/08/02 06:02:41;;;;;;;7.00;3.40;;;15.70;99.90;;;;;;5121266;27;20099;-83
2022/08/02 06:05:13;;;;;;;10.10;3.40;;;15.90;99.90;;;;;;5067496;28;20091;-84
2022/08/02 06:07:42;;;;;;;9.07;4.03;;;16.00;99.90;;;;;;5121367;28;20065;-84
2022/08/02 06:10:09;;;;;;;7.40;3.10;;;16.20;99.90;;;;;;5123170;28;20046;-84
2022/08/02 06:13:00;;;;;;;7.32;3.40;;;16.30;99.90;;;;;;5102377;28;20038;-84
2022/08/02 06:15:26;;;;;;;10.70;3.08;;;16.60;99.90;;;;;;5115547;28;20031;-84
2022/08/02 06:17:52;;;;;;;7.63;2.72;;;17.10;99.90;;;;;;5102713;28;20113;-85
2022/08/02 06:20:20;;;;;;;6.95;2.72;;;17.50;99.90;;;;;;5118426;28;20031;-85
2022/08/02 06:22:46;;;;;;;7.90;2.65;;;17.80;99.90;;;;;;5115678;28;20069;-85
2022/08/02 06:25:12;;;;;;;7.75;2.67;;;18.30;99.90;;;;;;5106551;28;20035;-84
2022/08/02 06:27:39;;;;;;;8.65;2.58;;;18.60;99.90;;;;;;5102288;28;20054;-84
2022/08/02 06:30:08;;;;;;;9.48;2.60;;;18.90;99.90;;;;;;5120950;28;20046;-84
2022/08/02 06:32:34;;;;;;;8.68;2.80;;;19.10;99.90;;;;;;5101759;28;20040;-83
2022/08/02 06:35:01;;;;;;;;;;;19.30;99.90;;;;;;5103468;28;20031;-83
2022/08/02 06:37:45;;;;;;;7.20;2.33;;;19.50;99.90;;;;;;5120509;28;20383;-84
2022/08/02 06:40:18;;;;;;;4.95;1.85;;;19.60;99.90;;;;;;5116704;28;20034;-84
2022/08/02 06:42:56;;;;;;;8.15;2.50;;;19.70;99.90;;;;;;5103973;28;20092;-84
2022/08/02 06:45:22;;;;;;;5.13;1.75;;;19.90;99.90;;;;;;5116396;28;20039;-84
2022/08/02 06:47:47;;;;;;;7.38;2.40;;;20.10;99.90;;;;;;5089263;28;20039;-84
2022/08/02 06:50:13;;;;;;;6.57;2.00;;;20.10;99.90;;;;;;5100369;28;20038;-84
2022/08/02 06:52:39;;;;;;;5.18;2.30;;;20.20;99.90;;;;;;5119452;28;20483;-85
2022/08/02 06:55:05;;;;;;;5.50;1.83;;;20.30;99.90;;;;;;5100575;28;20101;-84
2022/08/02 06:57:32;;;;;;;8.32;1.88;;;20.50;99.90;;;;;;5121387;28;20050;-84
2022/08/02 07:00:03;;;;;;;5.45;1.90;;;20.80;99.90;;;;;;5084881;28;20118;-83
2022/08/02 07:02:30;;;;;;;4.45;1.60;;;21.00;99.90;;;;;;5117589;28;20190;-84
2022/08/02 07:04:56;;;;;;;4.80;1.88;;;21.10;99.90;;;;;;5102557;27;20039;-84
2022/08/02 07:07:22;;;;;;;5.50;1.73;;;21.30;99.90;;;;;;5103363;28;20035;-84
2022/08/02 07:09:48;;;;;;;;;;;21.40;99.90;;;;;;5106848;28;20040;-83
2022/08/02 07:12:13;;;;;;;5.28;1.50;;;21.50;99.90;;;;;;5150409;27;20375;-85
2022/08/02 07:14:39;;;;;;;5.60;1.42;;;21.60;99.90;;;;;;5107728;27;20399;-84
2022/08/02 07:17:05;;;;;;;7.10;1.70;;;21.90;99.90;;;;;;5124506;27;20114;-85
2022/08/02 07:19:31;;;;;;;;;;;21.80;99.90;;;;;;5107790;27;20498;-83
2022/08/02 07:21:56;;;;;;;3.17;1.50;;;21.90;99.90;;;;;;5107408;27;19963;-84
2022/08/02 07:24:22;;;;;;;5.22;1.60;;;21.80;99.90;;;;;;5107545;27;20042;-84
2022/08/02 07:26:48;;;;;;;6.35;1.70;;;21.70;99.90;;;;;;5115813;27;20032;-84
2022/08/02 07:29:13;;;;;;;5.57;1.60;;;21.60;99.90;;;;;;5104797;28;20036;-84
2022/08/02 07:31:39;;;;;;;4.85;1.50;;;21.60;99.90;;;;;;5089706;28;20115;-84
2022/08/02 07:34:05;;;;;;;7.10;1.48;;;21.80;99.90;;;;;;5105292;27;20399;-84
2022/08/02 07:36:30;;;;;;;2.03;1.20;;;22.00;99.90;;;;;;5092679;27;20155;-84
2022/08/02 07:38:56;;;;;;;5.53;1.58;;;22.30;99.90;;;;;;5106988;27;20125;-83
2022/08/02 07:41:22;;;;;;;;;;;22.50;99.90;;;;;;5071523;27;20243;-83
2022/08/02 07:43:48;;;;;;;4.30;1.10;;;22.50;99.90;;;;;;5123917;27;19954;-84
2022/08/02 07:46:13;;;;;;;3.17;1.20;;;22.70;99.90;;;;;;5126220;27;20044;-83
2022/08/02 07:48:39;;;;;;;4.50;1.05;;;22.80;99.90;;;;;;5123657;27;20047;-83
2022/08/02 07:51:05;;;;;;;4.85;1.30;;;23.00;99.90;;;;;;5095406;27;20052;-85
2022/08/02 07:53:30;;;;;;;2.85;0.85;;;23.20;99.90;;;;;;5106365;27;20488;-84
2022/08/02 07:55:56;;;;;;;4.78;1.00;;;23.40;99.90;;;;;;5106595;27;20031;-83
2022/08/02 07:58:22;;;;;;;2.08;0.73;;;23.40;99.90;;;;;;5120555;27;20039;-83
2022/08/02 08:00:47;;;;;;;4.05;0.90;;;23.70;99.10;;;;;;5076534;28;20048;-83
2022/08/02 08:03:13;;;;;;;;;;;23.80;99.30;;;;;;5089110;28;20023;-83
2022/08/02 08:05:39;;;;;;;3.63;1.20;;;23.80;99.90;;;;;;5106213;27;19915;-83
2022/08/02 08:08:05;;;;;;;3.88;0.90;;;24.30;98.90;;;;;;5105453;27;20071;-83
2022/08/02 08:10:31;;;;;;;;;;;24.50;98.10;;;;;;5123671;27;20073;-83
2022/08/02 08:12:57;;;;;;;5.45;1.10;;;24.60;97.90;;;;;;5125500;27;20383;-84
2022/08/02 08:15:23;;;;;;;3.60;0.60;;;24.70;97.30;;;;;;5108538;27;20038;-82
2022/08/02 08:17:48;;;;;;;;;;;24.60;97.00;;;;;;5123504;27;20611;-83
2022/08/02 08:20:14;;;;;;;3.08;0.80;;;24.50;97.00;;;;;;5110510;27;19915;-83
2022/08/02 08:22:40;;;;;;;;;;;24.70;97.20;;;;;;5120266;27;20075;-83
2022/08/02 08:25:06;;;;;;;3.20;0.80;;;24.90;97.80;;;;;;5108747;27;19922;-84
2022/08/02 08:27:31;;;;;;;;;;;24.80;97.80;;;;;;5123509;27;20079;-83
2022/08/02 08:29:57;;;;;;;2.20;0.70;;;24.80;96.70;;;;;;5123287;27;19915;-83
2022/08/02 08:32:23;;;;;;;;;;;25.00;97.10;;;;;;5106020;27;20643;-84
2022/08/02 08:34:50;;;;;;;2.33;0.57;;;25.00;96.50;;;;;;5120002;27;19919;-83
2022/08/02 08:37:15;;;;;;;2.53;0.52;;;25.10;96.70;;;;;;5102389;28;20444;-83
2022/08/02 08:39:41;;;;;;;;;;;25.40;95.40;;;;;;5106042;27;20035;-84
2022/08/02 08:42:07;;;;;;;2.70;0.73;;;25.50;95.60;;;;;;5127185;27;19920;-84
2022/08/02 08:44:34;;;;;;;0.95;0.50;;;25.70;95.30;;;;;;5105948;27;20514;-84
2022/08/02 08:47:03;;;;;;;1.90;0.57;;;26.00;94.90;;;;;;5119583;27;20121;-84
2022/08/02 08:49:39;;;;;;;1.77;0.60;;;26.10;94.80;;;;;;5120394;27;20044;-82
2022/08/02 08:52:05;;;;;;;4.22;0.60;;;26.10;94.40;;;;;;5102206;28;20044;-84
2022/08/02 08:54:34;;;;;;;1.73;0.50;;;26.00;94.90;;;;;;5121669;27;20047;-84
2022/08/02 08:57:02;;;;;;;2.25;0.50;;;26.10;95.50;;;;;;5112886;27;20560;-84
2022/08/02 08:59:28;;;;;;;4.47;0.80;;;26.30;94.80;;;;;;5124622;27;20039;-83
2022/08/02 09:01:55;;;;;;;2.83;0.70;;;26.50;94.30;;;;;;5119243;27;20092;-83
2022/08/02 09:04:21;;;;;;;1.30;0.50;;;26.50;94.10;;;;;;5088197;27;20039;-83
2022/08/02 09:06:47;;;;;;;5.38;0.68;;;26.30;94.00;;;;;;5122715;27;20063;-83
2022/08/02 09:09:13;;;;;;;2.38;0.70;;;26.20;94.20;;;;;;5104459;27;20524;-83
2022/08/02 09:11:39;;;;;;;2.05;0.73;;;26.40;93.90;;;;;;5087126;27;20035;-83
2022/08/02 09:14:04;;;;;;;1.48;0.50;;;26.70;94.40;;;;;;5078654;27;20070;-84
2022/08/02 09:16:35;;;;;;;4.53;0.80;;;26.80;94.20;;;;;;5104773;27;20495;-83
2022/08/02 09:19:19;;;;;;;2.55;0.63;;;27.00;94.10;;;;;;5120868;27;20088;-83
2022/08/02 09:21:47;;;;;;;1.73;0.47;;;27.00;94.30;;;;;;5120846;27;20436;-84
2022/08/02 09:24:18;;;;;;;1.52;0.70;;;27.10;94.70;;;;;;5105101;27;20059;-84
2022/08/02 09:26:44;;;;;;;2.10;0.70;;;27.40;94.20;;;;;;5126247;27;20042;-85
2022/08/02 09:29:10;;;;;;;3.13;0.70;;;27.60;93.80;;;;;;5106766;27;20533;-83
2022/08/02 09:31:36;;;;;;;3.40;0.70;;;27.70;93.90;;;;;;5105771;27;20035;-83
2022/08/02 09:34:02;;;;;;;2.38;0.70;;;27.60;94.10;;;;;;5121455;27;20448;-84
2022/08/02 09:36:44;;;;;;;1.75;0.93;;;27.90;94.10;;;;;;5103177;28;20156;-83
2022/08/02 09:39:11;;;;;;;3.30;0.80;;;28.00;93.90;;;;;;5121319;27;20495;-84
2022/08/02 09:41:40;;;;;;;2.35;0.77;;;28.00;93.90;;;;;;5126494;27;20079;-84
2022/08/02 09:44:08;;;;;;;2.28;0.88;;;28.20;93.90;;;;;;5115295;27;20114;-84
2022/08/02 09:46:39;;;;;;;3.38;0.90;;;28.20;93.60;;;;;;5121194;27;20047;-85
2022/08/02 09:49:11;;;;;;;5.53;1.25;;;28.30;93.60;;;;;;5119177;27;20436;-84
2022/08/02 09:51:45;;;;;;;3.08;1.08;;;28.30;93.50;;;;;;5118744;27;20048;-84
2022/08/02 09:54:27;;;;;;;3.67;0.90;;;28.40;93.90;;;;;;5121077;27;20068;-83
2022/08/02 09:57:00;;;;;;;4.97;0.95;;;28.60;94.00;;;;;;5118960;27;20046;-83
2022/08/02 09:59:27;;;;;;;1.20;0.77;;;28.60;94.50;;;;;;5103532;28;20044;-84
2022/08/02 10:01:54;;;;;;;1.73;0.90;;;28.50;94.40;;;;;;5117615;27;20039;-84
2022/08/02 10:04:21;;;;;;;1.92;0.88;;;28.60;94.40;;;;;;5117179;27;20084;-84
2022/08/02 10:06:49;;;;;;;1.90;1.02;;;28.90;94.50;;;;;;5121309;27;20107;-83
2022/08/02 10:09:16;;;;;;;6.60;0.90;;;29.30;94.10;;;;;;5105898;28;20399;-84
2022/08/02 10:11:41;;;;;;;1.95;0.90;;;29.40;94.60;;;;;;5124569;28;20386;-82
2022/08/02 10:14:09;;;;;;;2.65;1.15;;;29.40;94.20;;;;;;5129657;28;20118;-84
2022/08/02 10:16:40;;;;;;;3.28;1.42;;;29.60;94.80;;;;;;5124001;28;20435;-84
2022/08/02 10:19:06;;;;;;;4.20;1.20;;;29.40;94.30;;;;;;5116205;28;20087;-84
2022/08/02 10:21:59;;;;;;;4.65;1.27;;;29.40;93.90;;;;;;5117132;28;20491;-84
2022/08/02 10:24:30;;;;;;;3.00;1.40;;;29.20;94.80;;;;;;5099246;28;20039;-84
2022/08/02 10:26:58;;;;;;;4.45;1.48;;;29.00;94.70;;;;;;5103308;28;20058;-84
2022/08/02 10:29:34;;;;;;;4.57;1.48;;;28.80;95.00;;;;;;5103444;27;20035;-85
2022/08/02 10:32:05;;;;;;;4.43;1.23;;;29.10;95.10;;;;;;5117493;28;20138;-85
2022/08/02 10:34:39;;;;;;;3.45;1.48;;;29.40;95.70;;;;;;5104113;28;20035;-84
2022/08/02 10:37:08;;;;;;;4.90;1.75;;;29.50;95.50;;;;;;5121178;28;20065;-85
2022/08/02 10:39:44;;;;;;;3.88;1.85;;;29.40;94.80;;;;;;5111353;28;20040;-83
2022/08/02 10:42:12;;;;;;;3.03;1.48;;;29.40;95.30;;;;;;5104564;28;20095;-86
2022/08/02 10:44:38;;;;;;;4.57;1.65;;;29.40;95.70;;;;;;5119813;27;20536;-84
2022/08/02 10:47:13;;;;;;;3.95;1.65;;;29.40;96.30;;;;;;5107606;27;20094;-84
2022/08/02 10:49:56;;;;;;;3.47;1.60;;;29.70;95.80;;;;;;5124198;27;20039;-84
2022/08/02 10:52:29;;;;;;;5.47;2.10;;;29.90;95.10;;;;;;5100633;27;20488;-84
2022/08/02 10:55:00;;;;;;;3.25;1.60;;;29.90;95.00;;;;;;5107812;27;20031;-84
2022/08/02 10:57:27;;;;;;;3.78;1.50;;;29.80;95.20;;;;;;5126532;27;20035;-84
2022/08/02 11:00:24;;;;;;;3.42;1.80;;;29.70;96.00;;;;;;5125187;27;20389;-84
2022/08/02 11:02:50;;;;;;;;;;;29.90;95.40;;;;;;5122109;27;20548;-84
2022/08/02 11:05:31;;;;;;;5.18;2.00;;;30.40;95.20;;;;;;5151707;27;20291;-84
2022/08/02 11:07:56;;;;;;;5.68;1.98;;;30.60;95.00;;;;;;5105401;27;20045;-83
2022/08/02 11:10:25;;;;;;;5.30;1.55;;;30.00;95.20;;;;;;5089934;27;20114;-83
2022/08/02 11:13:10;;;;;;;2.75;1.50;;;30.10;95.30;;;;;;5123848;27;20042;-84
2022/08/02 11:15:56;;;;;;;3.97;1.52;;;29.90;95.20;;;;;;5122139;27;20104;-83
2022/08/02 11:18:42;;;;;;;6.38;1.63;;;29.80;95.20;;;;;;5115327;27;20028;-84
2022/08/02 11:21:25;;;;;;;5.22;1.60;;;29.60;95.60;;;;;;5137409;27;20035;-84
2022/08/02 11:23:51;;;;;;;3.00;1.55;;;29.30;95.40;;;;;;5106583;27;20846;-84
2022/08/02 11:26:29;;;;;;;4.30;1.40;;;29.30;95.10;;;;;;5109911;28;20083;-84
2022/08/02 11:28:56;;;;;;;5.50;1.70;;;29.20;96.00;;;;;;5109871;28;20028;-84
2022/08/02 11:31:22;;;;;;;3.35;1.63;;;29.10;95.40;;;;;;5120930;27;20050;-84
2022/08/02 11:33:49;;;;;;;4.28;1.67;;;29.20;95.40;;;;;;5081747;27;20035;-84
2022/08/02 11:36:16;;;;;;;3.63;1.80;;;29.10;95.80;;;;;;5087119;27;20035;-84
2022/08/02 11:38:42;;;;;;;4.32;1.55;;;28.90;96.00;;;;;;5123081;27;20094;-83
2022/08/02 11:41:09;;;;;;;5.13;1.90;;;29.10;95.80;;;;;;5125344;27;20028;-83
2022/08/02 11:43:36;;;;;;;3.22;1.40;;;29.30;96.00;;;;;;5104181;27;20031;-83
2022/08/02 11:46:03;;;;;;;2.45;1.77;;;29.70;95.30;;;;;;5121398;27;20276;-83
2022/08/02 11:48:39;;;;;;;4.72;1.88;;;29.50;95.50;;;;;;5123579;27;20065;-83
2022/08/02 11:51:11;;;;;;;4.00;1.60;;;29.30;96.40;;;;;;5123653;27;20039;-84
2022/08/02 11:53:56;;;;;;;3.20;1.58;;;29.30;96.40;;;;;;5123242;27;20047;-83
2022/08/02 11:56:28;;;;;;;3.63;1.75;;;29.40;95.90;;;;;;5099365;27;20427;-84
2022/08/02 11:59:00;;;;;;;4.68;1.50;;;29.60;95.90;;;;;;5123408;27;20046;-83
2022/08/02 12:01:26;;;;;;;5.13;1.75;;;29.60;95.80;;;;;;5121626;27;20043;-83
2022/08/02 12:03:52;;;;;;;4.72;1.85;;;29.90;96.20;;;;;;5122360;27;20567;-84
2022/08/02 12:06:19;;;;;;;4.30;1.98;;;30.00;96.40;;;;;;5128565;27;20035;-83
2022/08/02 12:08:44;;;;;;;3.58;1.75;;;30.10;95.60;;;;;;5136677;27;20039;-84
2022/08/02 12:11:10;;;;;;;4.82;1.98;;;30.20;95.70;;;;;;5088271;27;20423;-84
2022/08/02 12:13:43;;;;;;;3.65;1.88;;;30.10;95.90;;;;;;5120051;27;20097;-84
2022/08/02 12:21:42;;;;;;;4.18;2.72;;;29.70;95.50;;;;;;5106869;27;20050;-85
2022/08/02 12:24:09;;;;;;;5.43;3.17;;;29.40;96.00;;;;;;5124343;27;20055;-84
2022/08/02 12:26:46;;;;;;;3.60;2.72;;;29.20;96.20;;;;;;5107345;27;20068;-84
2022/08/02 12:29:12;;;;;;;5.07;2.83;;;28.70;96.80;;;;;;5100144;28;20096;-83
2022/08/02 12:31:47;;;;;;;5.18;3.70;;;28.80;97.00;;;;;;5105314;28;20040;-83
2022/08/02 12:34:16;;;;;;;6.03;4.10;;;28.80;97.40;;;;;;5122272;27;20044;-84
2022/08/02 12:36:43;;;;;;;7.47;3.90;;;28.70;97.70;;;;;;5119909;27;20376;-85
2022/08/02 12:39:15;;;;;;;8.13;4.05;;;28.80;97.40;;;;;;5122165;27;20039;-84
2022/08/02 12:41:41;;;;;;;5.55;4.18;;;28.60;97.60;;;;;;5100722;27;20035;-84
2022/08/02 12:44:15;;;;;;;7.10;4.53;;;28.60;98.00;;;;;;5110175;27;20041;-84
2022/08/02 12:46:41;;;;;;;8.45;3.75;;;28.60;98.10;;;;;;5126199;27;20043;-83
2022/08/02 12:49:18;;;;;;;5.03;3.88;;;28.50;98.00;;;;;;5087872;27;20043;-84
2022/08/02 12:51:46;;;;;;;6.72;4.07;;;28.60;98.10;;;;;;5104141;27;20139;-84
2022/08/02 12:54:19;;;;;;;6.05;4.07;;;28.40;98.00;;;;;;5121106;27;20075;-84
2022/08/02 12:56:48;;;;;;;5.20;3.80;;;28.20;98.50;;;;;;5133056;27;20040;-81
2022/08/02 12:59:15;;;;;;;5.40;3.70;;;28.00;99.10;;;;;;5120580;27;20069;-82
2022/08/02 13:01:41;;;;;;;6.43;3.40;;;27.80;99.30;;;;;;5105647;27;20043;-82
2022/08/02 13:04:07;;;;;;;7.45;3.60;;;27.70;99.70;;;;;;5119229;27;20122;-82
2022/08/02 13:06:33;;;;;;;;;;;27.60;99.10;;;;;;5122970;27;20043;-82